Time;durP1;ratioP1;P1;durP2;ratioP2;P2;SDS_P1;SDS_P2;PMS_P1;PMS_P2;Temp;Humidity;BMP_temperature;BMP_pressure;BME280_temperature;BME280_humidity;BME280_pressure;Samples;Min_cycle;Max_cycle;Signal;HPM_P1;HPM_P2
2023/09/26 00:00:08;;;;;;;;;8.50;7.50;;;;;11.67;66.75;100526.97;5098635;28;8833;-58
2023/09/26 00:02:35;;;;;;;;;7.50;6.00;;;;;11.62;66.76;100530.00;5097271;28;8821;-58
2023/09/26 00:05:05;;;;;;;;;7.00;7.00;;;;;11.58;66.62;100528.50;5097154;28;8825;-59
2023/09/26 00:07:33;;;;;;;;;7.50;7.00;;;;;11.57;66.76;100524.09;5097518;28;8830;-57
2023/09/26 00:10:01;;;;;;;;;9.00;8.00;;;;;11.56;66.74;100535.75;5097236;28;8842;-58
2023/09/26 00:12:28;;;;;;;;;10.00;10.00;;;;;11.55;66.32;100531.38;5097046;28;8814;-58
2023/09/26 00:14:56;;;;;;;;;6.00;6.00;;;;;11.55;66.90;100531.38;5097692;28;9522;-58
2023/09/26 00:17:24;;;;;;;;;7.00;7.00;;;;;11.55;66.60;100525.16;5097106;28;8842;-60
2023/09/26 00:19:52;;;;;;;;;9.50;9.00;;;;;11.53;66.51;100525.28;5096867;28;9624;-59
2023/09/26 00:22:20;;;;;;;;;6.25;6.25;;;;;11.52;66.95;100523.59;5096989;28;8904;-57
2023/09/26 00:24:47;;;;;;;;;7.00;6.25;;;;;11.51;66.26;100529.06;5096764;28;8822;-59
2023/09/26 00:27:15;;;;;;;;;9.25;9.00;;;;;11.50;66.91;100536.19;5097239;28;8802;-58
2023/09/26 00:29:43;;;;;;;;;6.00;6.00;;;;;11.45;67.03;100527.66;5096856;28;8845;-59
2023/09/26 00:32:11;;;;;;;;;6.00;4.50;;;;;11.43;67.15;100531.41;5096892;28;8880;-59
2023/09/26 00:34:39;;;;;;;;;7.50;6.00;;;;;11.38;67.11;100538.91;5096704;28;8842;-59
2023/09/26 00:37:07;;;;;;;;;7.00;7.00;;;;;11.33;66.81;100528.59;5096417;28;8856;-59
2023/09/26 00:39:34;;;;;;;;;6.25;6.00;;;;;11.29;67.24;100540.41;5096250;28;9604;-59
2023/09/26 00:42:02;;;;;;;;;8.50;8.00;;;;;11.26;67.04;100543.31;5096808;28;8849;-60
2023/09/26 00:44:30;;;;;;;;;6.75;6.75;;;;;11.24;67.44;100534.56;5095900;28;9226;-59
2023/09/26 00:46:58;;;;;;;;;8.75;7.25;;;;;11.23;67.31;100546.19;5096519;28;8814;-60
2023/09/26 00:49:26;;;;;;;;;9.50;9.50;;;;;11.23;67.25;100532.03;5096431;28;8840;-59
2023/09/26 00:51:53;;;;;;;;;7.00;7.00;;;;;11.21;67.36;100542.78;5096087;28;8822;-59
2023/09/26 00:54:21;;;;;;;;;8.00;6.75;;;;;11.22;67.61;100541.81;5096068;28;8814;-59
2023/09/26 00:56:49;;;;;;;;;7.25;6.75;;;;;11.19;66.95;100542.06;5096314;28;8836;-59
2023/09/26 00:59:16;;;;;;;;;7.00;6.00;;;;;11.15;67.26;100539.72;5095696;28;9495;-59
2023/09/26 01:01:45;;;;;;;;;7.00;7.00;;;;;11.09;67.83;100538.34;5096786;28;9196;-59
2023/09/26 01:04:13;;;;;;;;;6.75;6.00;;;;;11.05;67.35;100538.69;5096608;28;8850;-59
2023/09/26 01:06:41;;;;;;;;;4.00;3.50;;;;;11.01;67.91;100545.19;5096455;28;9487;-59
2023/09/26 01:09:10;;;;;;;;;7.00;6.25;;;;;10.98;67.79;100542.75;5094688;28;8826;-57
2023/09/26 01:11:37;;;;;;;;;6.25;6.25;;;;;10.97;67.56;100533.03;5096028;28;8848;-60
2023/09/26 01:14:05;;;;;;;;;6.00;6.00;;;;;10.95;67.96;100529.66;5095941;28;8838;-58
2023/09/26 01:16:33;;;;;;;;;7.00;7.00;;;;;10.93;67.96;100521.75;5096049;28;8905;-59
2023/09/26 01:19:01;;;;;;;;;7.25;6.00;;;;;10.89;67.61;100522.94;5095974;28;8826;-60
2023/09/26 01:21:28;;;;;;;;;3.75;3.75;;;;;10.87;67.83;100519.56;5095830;28;8825;-57
2023/09/26 01:23:56;;;;;;;;;9.00;9.00;;;;;10.85;67.94;100515.28;5096297;28;8826;-57
2023/09/26 01:26:24;;;;;;;;;8.75;8.50;;;;;10.82;67.93;100513.69;5095590;28;8849;-59
2023/09/26 01:28:51;;;;;;;;;6.75;6.00;;;;;10.80;67.85;100515.63;5095452;28;8822;-59
2023/09/26 01:31:19;;;;;;;;;7.50;6.75;;;;;10.81;68.04;100514.66;5095207;28;8833;-57
2023/09/26 01:33:47;;;;;;;;;9.50;9.00;;;;;10.80;68.09;100507.63;5094937;28;8863;-59
2023/09/26 01:36:15;;;;;;;;;9.00;9.00;;;;;10.80;68.14;100509.44;5094376;28;8833;-59
2023/09/26 01:38:43;;;;;;;;;9.25;7.50;;;;;10.81;68.02;100506.66;5094700;28;8876;-59
2023/09/26 01:41:10;;;;;;;;;3.00;1.50;;;;;10.83;67.84;100518.06;5094989;28;8834;-57
2023/09/26 01:43:38;;;;;;;;;8.00;7.00;;;;;10.83;67.78;100518.06;5094844;28;8830;-59
2023/09/26 01:46:06;;;;;;;;;9.00;6.50;;;;;10.82;67.63;100513.69;5095036;28;8830;-59
2023/09/26 01:48:34;;;;;;;;;8.25;6.75;;;;;10.81;67.64;100501.34;5095761;28;8846;-59
2023/09/26 01:51:01;;;;;;;;;8.00;8.00;;;;;10.79;68.30;100513.94;5094284;28;8822;-59
2023/09/26 01:53:29;;;;;;;;;7.00;6.50;;;;;10.77;67.99;100512.31;5095152;28;8914;-57
2023/09/26 01:55:56;;;;;;;;;4.50;4.50;;;;;10.76;67.89;100506.13;5095330;28;8826;-57
2023/09/26 01:58:24;;;;;;;;;6.25;6.00;;;;;10.72;68.27;100510.00;5094499;28;8834;-57
2023/09/26 02:00:52;;;;;;;;;8.50;8.50;;;;;10.72;67.55;100509.13;5094866;28;8854;-57
2023/09/26 02:03:19;;;;;;;;;9.25;9.00;;;;;10.72;68.09;100514.44;5094756;28;8826;-58
2023/09/26 02:05:50;;;;;;;;;12.00;9.00;;;;;10.70;68.11;100508.41;5095204;28;8822;-59
2023/09/26 02:08:18;;;;;;;;;9.00;7.00;;;;;10.69;68.19;100517.34;5094866;28;8912;-57
2023/09/26 02:10:45;;;;;;;;;6.00;6.00;;;;;10.65;68.10;100503.41;5095398;28;8849;-58
2023/09/26 02:13:13;;;;;;;;;6.75;6.75;;;;;10.60;68.23;100504.66;5094972;28;8829;-59
2023/09/26 02:15:40;;;;;;;;;7.50;7.00;;;;;10.53;67.91;100498.91;5094798;28;8911;-58
2023/09/26 02:18:08;;;;;;;;;9.00;7.00;;;;;10.44;68.95;100498.72;5093727;28;8950;-60
2023/09/26 02:20:36;;;;;;;;;8.00;6.75;;;;;10.36;68.80;100495.72;5094328;28;8830;-59
2023/09/26 02:23:04;;;;;;;;;1.00;1.00;;;;;10.30;68.53;100499.69;5094455;28;8826;-60
2023/09/26 02:25:31;;;;;;;;;6.50;6.00;;;;;10.25;69.10;100490.31;5094725;28;8814;-59
2023/09/26 02:27:59;;;;;;;;;4.00;4.00;;;;;10.20;69.25;100490.66;5095035;28;8845;-59
2023/09/26 02:30:27;;;;;;;;;7.25;6.00;;;;;10.19;69.47;100486.28;5094987;28;8829;-57
2023/09/26 02:32:54;;;;;;;;;8.00;7.00;;;;;10.16;69.01;100481.16;5094580;28;8884;-58
2023/09/26 02:35:22;;;;;;;;;6.75;6.75;;;;;10.12;69.06;100481.47;5094474;28;8806;-57
2023/09/26 02:37:50;;;;;;;;;10.00;9.25;;;;;10.09;69.11;100479.88;5094694;28;8842;-59
2023/09/26 02:40:17;;;;;;;;;6.25;6.25;;;;;10.09;68.91;100479.03;5094441;28;8830;-59
2023/09/26 02:42:45;;;;;;;;;10.00;8.75;;;;;10.08;68.84;100478.19;5095308;28;8822;-59
2023/09/26 02:45:14;;;;;;;;;4.00;4.00;;;;;10.08;68.94;100474.69;5094285;28;8840;-59
2023/09/26 02:47:42;;;;;;;;;10.25;8.50;;;;;10.08;69.19;100472.84;5094187;28;9499;-60
2023/09/26 02:50:10;;;;;;;;;11.00;8.50;;;;;10.09;68.58;100471.06;5094240;28;8817;-59
2023/09/26 02:52:38;;;;;;;;;8.75;6.75;;;;;10.09;69.20;100473.72;5094678;28;8814;-59
2023/09/26 02:55:07;;;;;;;;;6.50;6.50;;;;;10.08;69.09;100480.84;5094274;28;8848;-59
2023/09/26 02:57:35;;;;;;;;;9.50;9.00;;;;;10.08;68.74;100478.19;5094617;28;8952;-59
2023/09/26 03:00:13;;;;;;;;;9.00;7.00;;;;;10.08;69.16;100475.50;5094119;28;8810;-59
2023/09/26 03:02:42;;;;;;;;;8.00;8.00;;;;;10.09;68.95;100479.88;5093717;28;8926;-59
2023/09/26 03:05:10;;;;;;;;;8.00;7.00;;;;;10.08;68.96;100470.19;5094840;28;8830;-59
2023/09/26 03:07:38;;;;;;;;;10.50;9.50;;;;;10.08;68.69;100480.84;5093969;28;8830;-58
2023/09/26 03:10:06;;;;;;;;;12.00;10.00;;;;;10.08;69.11;100475.50;5094147;28;8828;-59
2023/09/26 03:12:34;;;;;;;;;6.00;6.00;;;;;10.09;69.03;100477.22;5094158;28;8923;-59
2023/09/26 03:15:02;;;;;;;;;7.50;7.00;;;;;10.10;69.16;100478.91;5094313;28;8825;-59
2023/09/26 03:17:30;;;;;;;;;7.50;7.50;;;;;10.12;68.90;100477.03;5094140;28;9585;-59
2023/09/26 03:19:57;;;;;;;;;7.25;6.50;;;;;10.15;68.66;100475.94;5094343;28;8903;-59
2023/09/26 03:22:25;;;;;;;;;9.00;9.00;;;;;10.16;68.58;100473.16;5094177;28;8818;-60
2023/09/26 03:24:53;;;;;;;;;9.00;8.50;;;;;10.17;68.71;100469.56;5094224;28;9486;-59
2023/09/26 03:27:22;;;;;;;;;7.00;6.00;;;;;10.20;68.68;100469.34;5094261;28;8860;-59
2023/09/26 03:29:49;;;;;;;;;6.50;6.00;;;;;10.21;68.99;100467.53;5093822;28;8845;-60
2023/09/26 03:32:17;;;;;;;;;4.00;3.50;;;;;10.23;68.46;100462.97;5094040;28;8826;-58
2023/09/26 03:34:44;;;;;;;;;9.75;9.50;;;;;10.24;68.67;100470.81;5094960;28;8915;-58
2023/09/26 03:37:12;;;;;;;;;7.00;7.00;;;;;10.25;68.88;100467.19;5093183;28;8869;-58
2023/09/26 03:39:40;;;;;;;;;0.75;0.00;;;;;10.28;68.45;100471.47;5092093;28;8821;-59
2023/09/26 03:42:08;;;;;;;;;10.00;8.75;;;;;10.29;68.44;100470.50;5092473;28;8849;-58
2023/09/26 03:44:36;;;;;;;;;9.00;9.00;;;;;10.29;68.74;100476.69;5092213;28;8834;-60
2023/09/26 03:47:03;;;;;;;;;6.75;6.25;;;;;10.31;68.64;100473.94;5091941;28;8837;-60
2023/09/26 03:49:31;;;;;;;;;5.00;5.00;;;;;10.31;68.55;100477.44;5093389;28;8814;-59
2023/09/26 03:51:59;;;;;;;;;7.50;7.50;;;;;10.31;68.79;100465.94;5093179;28;9589;-60
2023/09/26 03:54:27;;;;;;;;;10.50;9.25;;;;;10.30;68.28;100467.75;5093486;28;8864;-60
2023/09/26 03:56:54;;;;;;;;;7.50;7.50;;;;;10.30;68.43;100467.75;5092902;28;8841;-57
2023/09/26 03:59:22;;;;;;;;;7.00;7.00;;;;;10.28;69.03;100463.47;5093737;28;8845;-59
2023/09/26 04:01:49;;;;;;;;;12.50;9.50;;;;;10.22;68.66;100454.13;5093414;28;8845;-58
2023/09/26 04:04:18;;;;;;;;;6.00;6.00;;;;;10.18;68.94;100457.94;5093426;28;8830;-59
2023/09/26 04:06:45;;;;;;;;;8.00;8.00;;;;;10.13;68.80;100461.88;5093268;28;9548;-59
2023/09/26 04:09:14;;;;;;;;;9.00;8.25;;;;;10.08;69.13;100459.53;5092491;28;8822;-59
2023/09/26 04:11:41;;;;;;;;;5.75;5.75;;;;;10.06;69.09;100457.94;5092360;28;8829;-60
2023/09/26 04:14:09;;;;;;;;;9.25;6.50;;;;;10.02;68.91;100461.75;5093939;28;9491;-58
2023/09/26 04:16:37;;;;;;;;;3.25;3.25;;;;;9.97;69.26;100467.41;5095442;28;8829;-60
2023/09/26 04:19:04;;;;;;;;;6.00;4.50;;;;;9.96;69.50;100465.66;5095625;28;8960;-58
2023/09/26 04:21:32;;;;;;;;;8.50;7.00;;;;;9.94;69.25;100461.44;5096017;28;8992;-60
2023/09/26 04:24:04;;;;;;;;;8.00;7.00;;;;;9.91;69.69;100462.50;5096255;28;8818;-60
2023/09/26 04:26:31;;;;;;;;;5.25;4.50;;;;;9.88;69.62;100454.72;5097095;28;9551;-59
2023/09/26 04:28:59;;;;;;;;;9.00;9.00;;;;;9.86;69.31;100453.97;5096481;28;8910;-59
2023/09/26 04:31:27;;;;;;;;;9.00;7.50;;;;;9.84;69.38;100450.56;5096525;28;8821;-60
2023/09/26 04:33:54;;;;;;;;;12.00;10.00;;;;;9.84;69.33;100452.38;5096333;28;8822;-59
2023/09/26 04:36:22;;;;;;;;;7.00;7.00;;;;;9.82;69.58;100441.84;5095994;28;8850;-57
2023/09/26 04:38:50;;;;;;;;;11.50;10.50;;;;;9.81;69.64;100442.78;5095994;28;8931;-58
2023/09/26 04:41:17;;;;;;;;;11.00;10.50;;;;;9.80;70.04;100433.09;5096005;28;8838;-60
2023/09/26 04:43:45;;;;;;;;;9.50;8.50;;;;;9.81;69.60;100436.63;5096117;28;8841;-57
2023/09/26 04:46:12;;;;;;;;;11.00;9.25;;;;;9.78;69.11;100432.38;5096602;28;9587;-58
2023/09/26 04:48:40;;;;;;;;;9.50;9.50;;;;;9.77;69.70;100432.47;5096005;28;8906;-58
2023/09/26 04:51:08;;;;;;;;;9.00;9.00;;;;;9.77;69.22;100428.00;5094908;28;9546;-57
2023/09/26 04:53:36;;;;;;;;;6.75;6.25;;;;;9.76;69.69;100436.94;5095198;28;8848;-60
2023/09/26 04:56:03;;;;;;;;;6.50;6.50;;;;;9.74;69.40;100430.88;5096011;28;8890;-59
2023/09/26 04:58:32;;;;;;;;;9.50;8.50;;;;;9.73;69.84;100430.97;5095491;28;8856;-59
2023/09/26 05:01:01;;;;;;;;;6.25;6.25;;;;;9.72;69.74;100424.81;5095870;28;8822;-57
2023/09/26 05:03:29;;;;;;;;;7.00;7.00;;;;;9.70;69.54;100432.03;5095565;28;8858;-57
2023/09/26 05:05:57;;;;;;;;;7.00;7.00;;;;;9.68;69.43;100433.97;5095329;28;8834;-58
2023/09/26 05:08:24;;;;;;;;;6.50;6.50;;;;;9.67;69.89;100431.41;5094694;28;8841;-58
2023/09/26 05:10:52;;;;;;;;;8.75;8.75;;;;;9.64;69.75;100421.81;5094847;28;8830;-59
2023/09/26 05:13:20;;;;;;;;;10.00;7.00;;;;;9.63;69.75;100430.75;5094712;28;8822;-59
2023/09/26 05:15:48;;;;;;;;;10.50;6.75;;;;;9.62;70.13;100422.88;5093766;28;8861;-59
2023/09/26 05:18:16;;;;;;;;;7.25;7.00;;;;;9.62;69.71;100425.53;5092670;28;8830;-60
2023/09/26 05:20:44;;;;;;;;;6.75;6.75;;;;;9.61;69.96;100422.03;5093378;28;8842;-59
2023/09/26 05:23:11;;;;;;;;;9.00;9.00;;;;;9.63;69.55;100424.59;5093832;28;8830;-59
2023/09/26 05:25:39;;;;;;;;;6.50;6.00;;;;;9.65;69.93;100423.50;5093395;28;8833;-59
2023/09/26 05:28:07;;;;;;;;;7.50;7.00;;;;;9.69;69.43;100434.78;5093695;28;8956;-58
2023/09/26 05:30:34;;;;;;;;;6.00;6.00;;;;;9.70;69.38;100425.84;5093601;28;8834;-59
2023/09/26 05:33:02;;;;;;;;;6.25;4.25;;;;;9.73;69.34;100429.16;5093658;28;8884;-59
2023/09/26 05:35:30;;;;;;;;;8.00;7.00;;;;;9.77;69.81;100437.78;5093180;28;8826;-58
2023/09/26 05:37:58;;;;;;;;;7.50;7.50;;;;;9.81;69.42;100431.31;5094310;28;9267;-56
2023/09/26 05:40:25;;;;;;;;;4.00;3.50;;;;;9.82;69.03;100433.00;5093695;28;8814;-58
2023/09/26 05:42:53;;;;;;;;;8.00;6.50;;;;;9.82;69.31;100438.31;5094014;28;8845;-59
2023/09/26 05:45:21;;;;;;;;;6.75;6.25;;;;;9.80;69.45;100433.09;5093362;28;8969;-59
2023/09/26 05:47:48;;;;;;;;;10.50;8.00;;;;;9.81;69.56;100440.13;5092910;28;8834;-59
2023/09/26 05:50:16;;;;;;;;;8.50;8.00;;;;;9.82;69.32;100435.66;5092261;28;8818;-59
2023/09/26 05:52:44;;;;;;;;;8.00;6.75;;;;;9.85;69.29;100440.75;5092495;28;8860;-57
2023/09/26 05:55:12;;;;;;;;;3.00;3.00;;;;;9.89;68.92;100439.63;5092790;28;8825;-58
2023/09/26 05:57:40;;;;;;;;;9.00;8.50;;;;;9.93;69.18;100441.94;5091692;28;8852;-59
2023/09/26 06:00:12;;;;;;;;;8.00;8.00;;;;;9.98;68.58;100442.50;5091898;28;8834;-59
2023/09/26 06:02:40;;;;;;;;;7.00;7.00;;;;;10.05;69.20;100443.81;5090675;28;8818;-59
2023/09/26 06:05:09;;;;;;;;;9.00;7.00;;;;;10.10;69.04;100432.84;5091352;28;8907;-59
2023/09/26 06:07:37;;;;;;;;;6.75;6.25;;;;;10.15;68.41;100434.22;5090890;28;8930;-59
2023/09/26 06:10:05;;;;;;;;;8.50;8.50;;;;;10.21;68.38;100424.94;5090790;28;8826;-59
2023/09/26 06:12:36;;;;;;;;;6.00;4.00;;;;;10.26;68.29;100426.31;5090864;28;8956;-59
2023/09/26 06:15:05;;;;;;;;;7.50;6.25;;;;;10.35;68.20;100432.81;5090764;28;8834;-59
2023/09/26 06:17:33;;;;;;;;;5.50;4.00;;;;;10.43;68.40;100428.66;5090957;28;8853;-60
2023/09/26 06:20:02;;;;;;;;;6.00;4.50;;;;;10.51;67.90;100434.28;5090836;28;8847;-60
2023/09/26 06:22:29;;;;;;;;;9.25;7.50;;;;;10.58;68.09;100442.66;5091499;28;8902;-60
2023/09/26 06:24:58;;;;;;;;;9.00;9.00;;;;;10.65;67.70;100433.28;5091837;28;8867;-58
2023/09/26 06:27:26;;;;;;;;;9.00;8.50;;;;;10.74;67.62;100429.94;5091382;28;8854;-58
2023/09/26 06:29:54;;;;;;;;;6.75;6.75;;;;;10.80;67.31;100430.38;5092738;28;8830;-59
2023/09/26 06:32:22;;;;;;;;;9.00;9.00;;;;;10.88;67.66;100428.00;5091530;28;8824;-59
2023/09/26 06:34:51;;;;;;;;;5.50;5.50;;;;;10.95;67.67;100426.59;5092393;28;8975;-60
2023/09/26 06:37:19;;;;;;;;;5.25;5.25;;;;;11.03;67.08;100423.34;5091766;28;8829;-59
2023/09/26 06:39:47;;;;;;;;;9.00;9.00;;;;;11.15;67.74;100425.94;5090969;28;8834;-59
2023/09/26 06:42:16;;;;;;;;;6.75;6.75;;;;;11.24;66.63;100425.25;5091736;28;8988;-58
2023/09/26 06:44:44;;;;;;;;;9.00;6.25;;;;;11.34;66.74;100431.63;5091198;28;8836;-59
2023/09/26 06:47:11;;;;;;;;;11.75;11.00;;;;;11.43;66.32;100427.41;5090089;28;8842;-59
2023/09/26 06:49:39;;;;;;;;;9.50;8.50;;;;;11.53;66.65;100431.09;5091200;28;8887;-60
2023/09/26 06:52:07;;;;;;;;;10.00;10.00;;;;;11.63;66.42;100429.44;5090232;28;8833;-60
2023/09/26 06:54:34;;;;;;;;;6.75;5.00;;;;;11.75;66.54;100425.88;5091432;28;8830;-59
2023/09/26 06:57:02;;;;;;;;;13.75;10.25;;;;;11.85;66.40;100429.50;5090738;28;8849;-59
2023/09/26 06:59:30;;;;;;;;;10.00;9.75;;;;;11.93;65.84;100428.78;5089719;28;9268;-57
2023/09/26 07:01:57;;;;;;;;;9.00;7.00;;;;;12.02;65.54;100424.56;5090733;28;8872;-58
2023/09/26 07:04:25;;;;;;;;;9.50;9.00;;;;;12.08;65.79;100429.44;5090890;28;8857;-60
2023/09/26 07:06:53;;;;;;;;;11.50;11.50;;;;;12.12;65.52;100426.41;5090596;28;8830;-59
2023/09/26 07:09:22;;;;;;;;;7.00;6.75;;;;;12.18;65.71;100435.75;5089413;28;8908;-59
2023/09/26 07:11:52;;;;;;;;;9.25;8.00;;;;;12.24;65.58;100428.09;5089929;28;9533;-59
2023/09/26 07:14:20;;;;;;;;;10.00;10.00;;;;;12.31;65.98;100423.97;5090761;28;8973;-58
2023/09/26 07:16:48;;;;;;;;;11.50;9.75;;;;;12.41;65.31;100430.31;5091119;28;8844;-57
2023/09/26 07:19:16;;;;;;;;;14.50;12.75;;;;;12.54;65.30;100432.84;5091020;28;8830;-59
2023/09/26 07:21:43;;;;;;;;;10.00;8.00;;;;;12.67;65.17;100417.50;5092339;28;8834;-59
2023/09/26 07:24:11;;;;;;;;;10.50;10.00;;;;;12.82;65.24;100418.94;5091831;28;8914;-59
2023/09/26 07:26:40;;;;;;;;;6.75;6.00;;;;;12.98;64.45;100408.75;5091503;28;8838;-59
2023/09/26 07:29:07;;;;;;;;;10.50;10.50;;;;;13.14;64.52;100411.88;5091223;28;8821;-58
2023/09/26 07:31:35;;;;;;;;;9.00;7.50;;;;;13.28;64.49;100408.91;5089777;28;8814;-60
2023/09/26 07:34:03;;;;;;;;;7.25;6.50;;;;;13.42;63.69;100404.09;5092201;28;9527;-60
2023/09/26 07:36:32;;;;;;;;;8.00;7.00;;;;;13.55;63.95;100414.59;5091800;28;9105;-60
2023/09/26 07:39:00;;;;;;;;;12.00;10.50;;;;;13.69;63.57;100407.13;5091525;28;9599;-57
2023/09/26 07:41:27;;;;;;;;;10.50;10.50;;;;;13.86;63.37;100398.50;5091796;28;8846;-60
2023/09/26 07:43:55;;;;;;;;;11.75;11.75;;;;;14.05;63.34;100393.22;5091613;28;8893;-59
2023/09/26 07:46:24;;;;;;;;;15.00;13.00;;;;;14.27;62.74;100392.25;5091521;28;8822;-59
2023/09/26 07:48:52;;;;;;;;;12.00;10.50;;;;;14.47;62.28;100396.69;5091722;28;8829;-60
2023/09/26 07:51:20;;;;;;;;;6.00;4.00;;;;;14.63;62.25;100400.56;5093187;28;8989;-57
2023/09/26 07:53:48;;;;;;;;;9.50;9.50;;;;;14.80;62.14;100396.41;5093608;28;8957;-59
2023/09/26 07:56:16;;;;;;;;;8.50;8.50;;;;;14.96;62.34;100388.66;5093778;28;8826;-60
2023/09/26 07:58:45;;;;;;;;;6.50;6.00;;;;;15.14;61.92;100389.66;5093395;28;8818;-60
2023/09/26 08:01:12;;;;;;;;;7.50;7.00;;;;;15.27;61.40;100388.41;5093063;28;8858;-59
2023/09/26 08:03:43;;;;;;;;;9.25;9.25;;;;;15.39;61.81;100387.31;5093145;28;8870;-60
2023/09/26 08:06:13;;;;;;;;;9.50;9.00;;;;;15.52;61.42;100387.00;5091757;28;8881;-60
2023/09/26 08:08:41;;;;;;;;;11.00;9.00;;;;;15.65;60.94;100390.25;5093191;28;8844;-60
2023/09/26 08:11:10;;;;;;;;;9.50;9.50;;;;;15.77;60.59;100394.50;5092008;28;8853;-59
2023/09/26 08:13:37;;;;;;;;;6.50;5.00;;;;;15.92;61.03;100390.38;5092527;28;8997;-60
2023/09/26 08:16:05;;;;;;;;;3.75;3.75;;;;;16.06;60.37;100389.88;5092469;28;8842;-58
2023/09/26 08:18:33;;;;;;;;;8.00;7.50;;;;;16.23;60.39;100388.16;5091813;28;8992;-60
2023/09/26 08:21:01;;;;;;;;;8.50;7.00;;;;;16.40;60.26;100384.72;5093008;28;8830;-60
2023/09/26 08:23:30;;;;;;;;;7.00;7.00;;;;;16.55;59.41;100383.22;5093417;28;8956;-60
2023/09/26 08:25:58;;;;;;;;;9.50;9.00;;;;;16.72;59.61;100379.72;5094372;28;8960;-58
2023/09/26 08:28:28;;;;;;;;;9.50;9.50;;;;;16.90;59.89;100387.84;5094017;28;8822;-59
2023/09/26 08:30:56;;;;;;;;;8.50;8.00;;;;;17.14;59.22;100383.56;5094631;28;8826;-61
2023/09/26 08:33:24;;;;;;;;;9.25;8.75;;;;;17.55;58.28;100379.44;5093613;28;8846;-58
2023/09/26 08:35:53;;;;;;;;;7.80;7.80;;;;;18.03;57.47;100375.28;5093908;28;8844;-61
2023/09/26 08:38:21;;;;;;;;;7.80;7.00;;;;;18.47;57.06;100368.81;5093903;28;8830;-61
2023/09/26 08:40:48;;;;;;;;;8.20;7.80;;;;;18.88;56.62;100373.34;5093417;28;8854;-61
2023/09/26 08:43:16;;;;;;;;;9.00;7.00;;;;;19.19;56.28;100377.16;5092948;28;8818;-60
2023/09/26 08:45:44;;;;;;;;;8.60;8.60;;;;;19.44;55.96;100380.75;5091876;28;8830;-60
2023/09/26 08:48:12;;;;;;;;;6.00;6.00;;;;;19.62;56.18;100367.91;5092554;28;8840;-59
2023/09/26 08:50:40;;;;;;;;;7.00;7.00;;;;;19.71;56.35;100367.75;5093452;28;8853;-60
2023/09/26 08:53:08;;;;;;;;;9.00;7.00;;;;;19.77;56.39;100367.06;5092263;28;8903;-61
2023/09/26 08:55:36;;;;;;;;;9.00;9.00;;;;;19.85;55.93;100385.97;5092842;28;8895;-61
2023/09/26 08:58:03;;;;;;;;;9.60;8.80;;;;;19.93;55.83;100374.31;5094056;28;8856;-61
2023/09/26 09:00:32;;;;;;;;;8.80;7.20;;;;;19.96;56.16;100365.88;5090907;28;8853;-61
2023/09/26 09:02:59;;;;;;;;;7.60;7.60;;;;;19.97;56.10;100360.31;5091930;28;8842;-61
2023/09/26 09:05:27;;;;;;;;;9.60;8.00;;;;;19.99;56.01;100360.97;5092925;28;8834;-59
2023/09/26 09:07:55;;;;;;;;;5.40;5.40;;;;;20.01;56.21;100369.75;5092506;28;8860;-60
2023/09/26 09:10:23;;;;;;;;;7.60;7.60;;;;;20.04;55.89;100366.69;5091905;28;9549;-62
2023/09/26 09:12:51;;;;;;;;;8.20;7.60;;;;;20.08;56.47;100362.66;5091454;28;8871;-61
2023/09/26 09:15:19;;;;;;;;;8.20;8.20;;;;;20.13;56.02;100370.25;5091174;28;8846;-60
2023/09/26 09:17:47;;;;;;;;;8.20;8.20;;;;;20.17;56.10;100358.91;5090795;28;8834;-60
2023/09/26 09:20:16;;;;;;;;;7.40;7.40;;;;;20.20;56.46;100364.00;5091036;28;8829;-60
2023/09/26 09:22:46;;;;;;;;;6.00;6.00;;;;;20.26;56.29;100363.28;5092670;28;8838;-61
2023/09/26 09:25:14;;;;;;;;;8.20;7.00;;;;;20.34;55.84;100355.13;5092514;28;8908;-60
2023/09/26 09:27:43;;;;;;;;;9.20;9.20;;;;;20.41;56.37;100349.91;5092355;28;8836;-61
2023/09/26 09:30:12;;;;;;;;;7.20;7.20;;;;;20.50;56.17;100349.69;5093217;28;8868;-61
2023/09/26 09:32:40;;;;;;;;;7.40;7.40;;;;;20.59;55.77;100343.22;5091733;28;8833;-62
2023/09/26 09:35:08;;;;;;;;;8.00;4.80;;;;;20.69;55.65;100343.84;5091468;28;8837;-61
2023/09/26 09:37:36;;;;;;;;;7.60;7.40;;;;;20.79;55.19;100344.47;5092141;28;8837;-60
2023/09/26 09:40:05;;;;;;;;;7.00;7.00;;;;;20.89;55.15;100337.00;5092521;28;8833;-61
2023/09/26 09:42:33;;;;;;;;;8.00;7.20;;;;;21.01;55.60;100339.13;5093017;28;8868;-61
2023/09/26 09:45:00;;;;;;;;;6.40;6.20;;;;;21.14;55.41;100335.81;5092862;28;8932;-60
2023/09/26 09:47:28;;;;;;;;;4.00;4.00;;;;;21.32;55.14;100333.66;5092339;28;8854;-60
2023/09/26 09:49:56;;;;;;;;;7.00;6.60;;;;;21.70;54.29;100330.00;5092436;28;8848;-61
2023/09/26 09:52:24;;;;;;;;;8.00;7.00;;;;;22.32;52.87;100326.78;5093071;28;8825;-59
2023/09/26 09:54:52;;;;;;;;;6.80;5.80;;;;;23.08;51.51;100326.31;5092839;28;8980;-56
2023/09/26 09:57:20;;;;;;;;;5.00;5.00;;;;;23.91;50.38;100311.03;5093223;28;8846;-59
2023/09/26 09:59:48;;;;;;;;;6.00;6.00;;;;;24.59;49.10;100317.34;5092304;28;8826;-58
2023/09/26 10:02:17;;;;;;;;;5.00;5.00;;;;;25.30;47.99;100316.78;5092900;28;8907;-58
2023/09/26 10:04:47;;;;;;;;;4.80;4.00;;;;;26.04;47.15;100312.84;5092443;28;8910;-57
2023/09/26 10:07:16;;;;;;;;;6.00;5.60;;;;;26.79;46.28;100311.16;5090680;28;8845;-58
2023/09/26 10:09:46;;;;;;;;;2.00;2.00;;;;;27.30;45.31;100314.69;5091437;28;8832;-57
2023/09/26 10:12:14;;;;;;;;;3.80;3.00;;;;;27.41;45.94;100314.00;5091084;28;8834;-58
2023/09/26 10:14:42;;;;;;;;;5.00;5.00;;;;;27.63;45.72;100309.00;5092583;28;9511;-57
2023/09/26 10:17:10;;;;;;;;;3.40;3.40;;;;;27.65;45.62;100306.88;5092622;28;8865;-57
2023/09/26 10:19:39;;;;;;;;;5.00;5.00;;;;;27.58;46.08;100303.34;5091753;28;8834;-59
2023/09/26 10:22:27;;;;;;;;;6.80;5.40;;;;;27.71;46.44;100295.84;5091832;28;8850;-59
2023/09/26 10:24:54;;;;;;;;;6.40;5.40;;;;;28.07;46.01;100289.66;5092357;28;8836;-60
2023/09/26 10:27:22;;;;;;;;;4.00;4.00;;;;;28.41;45.37;100280.88;5092160;28;8856;-60
2023/09/26 10:29:54;;;;;;;;;5.20;5.20;;;;;28.71;44.51;100282.63;5092448;28;8848;-59
2023/09/26 10:32:22;;;;;;;;;6.00;6.00;;;;;29.04;44.50;100274.81;5092811;28;8899;-59
2023/09/26 10:34:50;;;;;;;;;4.00;4.00;;;;;29.36;43.45;100272.66;5092140;28;9243;-58
2023/09/26 10:37:38;;;;;;;;;0.00;0.00;;;;;29.65;43.61;100267.13;5091601;28;8850;-58
2023/09/26 10:40:06;;;;;;;;;5.60;3.00;;;;;29.30;43.85;100260.72;5093188;28;8841;-58
2023/09/26 10:42:35;;;;;;;;;5.60;5.60;;;;;28.74;44.72;100260.22;5092415;28;9554;-58
2023/09/26 10:45:26;;;;;;;;;2.40;2.40;;;;;28.13;45.54;100261.38;5091746;28;8846;-57
2023/09/26 10:47:54;;;;;;;;;6.40;4.80;;;;;27.84;46.23;100271.13;5090966;28;8840;-57
2023/09/26 10:50:42;;;;;;;;;3.00;3.00;;;;;27.64;46.45;100267.72;5090633;28;8842;-59
2023/09/26 10:53:12;;;;;;;;;3.80;3.40;;;;;27.42;46.45;100269.16;5091381;28;8830;-57
2023/09/26 10:55:40;;;;;;;;;6.80;6.00;;;;;27.16;47.18;100274.00;5090275;28;8842;-59
2023/09/26 10:58:08;;;;;;;;;4.80;4.00;;;;;26.94;47.66;100276.16;5090813;28;9258;-57
2023/09/26 11:00:36;;;;;;;;;4.00;4.00;;;;;26.68;47.89;100268.13;5091101;28;8913;-57
2023/09/26 11:03:04;;;;;;;;;4.20;4.20;;;;;26.52;47.90;100265.88;5089343;28;8942;-58
2023/09/26 11:05:32;;;;;;;;;4.20;4.20;;;;;26.42;48.75;100268.19;5088721;28;8834;-59
2023/09/26 11:08:00;;;;;;;;;4.20;4.20;;;;;26.22;48.48;100274.75;5088840;28;8849;-58
2023/09/26 11:10:28;;;;;;;;;5.00;5.00;;;;;26.07;48.78;100276.91;5088454;28;8850;-58
2023/09/26 11:12:57;;;;;;;;;6.00;5.20;;;;;26.07;48.81;100277.75;5088509;28;8866;-58
2023/09/26 11:15:25;;;;;;;;;4.20;4.20;;;;;26.35;47.86;100270.09;5088595;28;8899;-59
2023/09/26 11:17:56;;;;;;;;;2.60;2.60;;;;;26.65;47.04;100273.19;5088798;28;8907;-58
2023/09/26 11:20:24;;;;;;;;;5.00;5.00;;;;;27.13;46.02;100263.44;5089908;28;8834;-59
2023/09/26 11:22:52;;;;;;;;;4.80;4.80;;;;;27.66;45.21;100271.06;5090505;28;8841;-59
2023/09/26 11:25:20;;;;;;;;;3.80;3.00;;;;;28.29;44.47;100260.78;5093873;28;8864;-58
2023/09/26 11:27:48;;;;;;;;;3.80;3.80;;;;;29.00;43.24;100254.41;5094294;28;8918;-59
2023/09/26 11:30:17;;;;;;;;;3.80;3.00;;;;;29.56;41.84;100248.47;5094219;28;8826;-59
2023/09/26 11:32:46;;;;;;;;;4.80;4.00;;;;;29.80;41.90;100251.00;5094251;28;8830;-58
2023/09/26 11:35:15;;;;;;;;;3.00;3.00;;;;;30.29;41.45;100245.03;5092111;28;8879;-59
2023/09/26 11:37:43;;;;;;;;;5.20;4.20;;;;;30.88;40.07;100250.16;5092697;28;9580;-58